Hovedside
METAR-TAF:

METAR-TAF

Lufthavner :

Leeming, England

breddegrad: 54-18N, lengdegrad: 001-32W, høyde over havet: 40 m

Gjeldene værobservasjon

Denne rapporten ble laget for 27 minutter siden, klokken 01:50 UTC
Vind 3 kt fra Sørøst
Temperatur 13°C
Luftfuktighet 100%
Trykk 1010 hPa
Sikt: 7000 m
dis,

METAR: EGXE 150150Z AUTO 14003KT 7000 BR FEW001/// OVC067/// 13/13 Q1010

Tid: 03:17 (02:17 UTC)


TAF: fraværende

Værobservasjoner og værvarsel for over 4000 flyplasser (METAR- og TAF-rapporter).

Tilgjengelige stasjoner er representert av de røde og gule prikkene på kartet.

Hold musepekeren over prikken for å se navnet på stasjonen.

Klikk så for å se værobservasjoner og -varsler.

For å forandre kartet kan du klikke på den grønne knappen med svart kryss for å zoome inn, på den grønne knappen med strek for å zoome ut, eller på de grønne pilene for å se tilstøtende kart.


METAR-TAF: